HST,Max TemperatureF,Mean TemperatureF,Min TemperatureF,Max Dew PointF,MeanDew PointF,Min DewpointF,Max Humidity, Mean Humidity, Min Humidity, Max Sea Level PressureIn, Mean Sea Level PressureIn, Min Sea Level PressureIn, Max VisibilityMiles, Mean VisibilityMiles, Min VisibilityMiles, Max Wind SpeedMPH, Mean Wind SpeedMPH, Max Gust SpeedMPH,PrecipitationIn, CloudCover, Events, WindDirDegrees
2013-2-1,81,74,68,67,63,58,84,68,49,30.06,30.03,29.98,10,10,10,18,7,28,0.00,1,,76
2013-2-2,81,75,69,63,61,56,73,62,48,30.11,30.06,30.01,10,10,10,10,7,,0.00,1,,144
2013-2-3,79,74,69,63,60,55,78,65,53,30.13,30.07,30.03,10,10,10,23,6,32,0.00,6,Rain,46
2013-2-4,79,74,68,62,58,54,73,60,47,30.06,30.03,30.00,10,10,10,21,10,25,0.00,4,,94
2013-2-5,80,73,66,63,60,55,70,62,50,30.05,30.01,29.97,10,10,10,12,6,,0.00,4,,123
2013-2-6,80,73,66,64,61,56,71,64,56,30.05,30.01,29.97,10,10,10,10,5,,0.00,1,,164
2013-2-7,81,76,70,65,63,59,71,64,56,30.09,30.04,29.99,10,10,10,13,7,,0.00,2,,158
2013-2-8,80,74,69,66,63,59,73,67,60,30.11,30.06,30.01,10,10,10,10,6,,0.00,1,,167
2013-2-9,81,74,68,64,62,60,81,64,50,30.09,30.05,30.00,10,10,10,14,6,,0.00,1,,146
2013-2-10,81,75,69,65,62,57,73,65,53,30.14,30.09,30.04,10,10,10,12,6,,0.00,1,,207
2013-2-11,81,74,68,65,60,56,71,60,47,30.16,30.12,30.07,10,10,10,23,8,33,0.00,2,Rain,30
2013-2-12,80,73,66,63,58,51,66,57,40,30.14,30.09,30.04,10,10,10,16,11,24,0.00,3,,357
2013-2-13,80,73,66,58,53,48,55,49,36,30.09,30.04,29.98,10,10,10,16,10,,0.00,5,,64
2013-2-14,79,72,66,60,56,52,70,56,48,30.06,30.01,29.96,10,10,10,12,6,,0.00,3,,44
2013-2-15,81,74,66,64,59,49,76,61,37,30.06,30.01,29.96,10,10,10,17,6,17,0.00,3,,30
2013-2-16,81,75,69,64,60,55,69,61,50,30.07,30.02,29.97,10,10,10,13,6,,0.00,2,,139
2013-2-17,80,74,68,63,61,58,76,62,52,30.08,30.03,29.98,10,10,10,15,6,,0.01,2,,134
2013-2-18,80,75,70,63,61,56,71,63,52,30.07,30.02,29.97,10,10,10,13,7,,0.00,4,Rain,122
2013-2-19,82,75,68,62,59,54,71,59,42,30.08,30.03,29.96,10,10,10,21,6,,0.00,3,,114
2013-2-20,81,74,68,64,60,54,67,59,50,30.10,30.04,30.00,10,10,10,13,6,25,0.00,1,,173
2013-2-21,80,74,68,65,62,57,70,63,56,30.10,30.06,30.01,10,10,10,14,6,,0.00,1,,185
2013-2-22,80,76,71,66,62,57,73,63,56,30.08,30.03,29.98,10,10,10,13,6,,0.00,2,Rain,137
2013-2-23,81,75,69,65,61,57,75,63,52,30.08,30.03,29.99,10,10,10,15,7,,0.00,3,,108
2013-2-24,80,74,69,64,60,57,73,61,47,30.06,30.02,29.96,10,10,10,23,7,34,0.00,3,Rain,75
2013-2-25,81,74,68,64,61,57,76,62,55,30.09,30.04,29.99,10,10,10,18,7,26,0.00,2,,112
2013-2-26,82,74,66,64,60,56,76,61,50,30.11,30.06,30.01,10,10,10,14,8,,0.00,2,,129
2013-2-27,80,74,69,63,61,57,71,62,54,30.13,30.09,30.04,10,10,10,10,6,,0.00,3,,128
2013-2-28,78,72,66,62,58,52,70,59,50,30.14,30.09,30.05,10,10,10,14,4,,0.00,3,,198